createdAt,value
2019-05-13T00:03:40.904Z,271.95
2019-05-13T00:08:40.839Z,245.31
2019-05-13T00:13:40.899Z,260.8
2019-05-13T00:18:40.818Z,265.4
2019-05-13T00:23:40.804Z,239.97
2019-05-13T00:28:40.817Z,238.24
2019-05-13T00:33:40.809Z,210.08
2019-05-13T00:38:40.838Z,223.88
2019-05-13T00:43:40.770Z,224.8
2019-05-13T00:48:40.795Z,220.89
2019-05-13T00:53:40.773Z,246.04
2019-05-13T00:58:40.760Z,267.77
2019-05-13T01:03:40.747Z,267.55
2019-05-13T01:08:44.213Z,265.83
2019-05-13T01:13:40.726Z,263.29
2019-05-13T01:18:40.725Z,260.18
2019-05-13T01:23:40.756Z,267.12
2019-05-13T01:28:40.785Z,265.19
2019-05-13T01:33:40.720Z,280.73
2019-05-13T01:38:40.723Z,256.35
2019-05-13T01:43:40.701Z,286.82
2019-05-13T01:48:40.735Z,252.24
2019-05-13T01:53:40.705Z,270.18
2019-05-13T01:58:40.708Z,259.36
2019-05-13T02:03:40.719Z,236.71
2019-05-13T02:08:40.699Z,235.36
2019-05-13T02:13:40.722Z,229.32
2019-05-13T02:18:46.509Z,233.86
2019-05-13T02:23:40.710Z,236.88
2019-05-13T02:28:40.687Z,232.38
2019-05-13T02:33:42.295Z,230.76
2019-05-13T02:38:42.663Z,225.56
2019-05-13T02:43:46.875Z,221.63
2019-05-13T02:48:42.086Z,212.51
2019-05-13T02:53:42.997Z,221.19
2019-05-13T02:58:44.791Z,234.86
2019-05-13T03:03:44.133Z,239.97
2019-05-13T03:08:49.738Z,252.24
2019-05-13T03:13:42.529Z,259.57
2019-05-13T03:18:43.395Z,237.05
2019-05-13T03:23:43.932Z,233.7
2019-05-13T03:28:43.501Z,215.28
2019-05-13T03:33:46.043Z,193.48
2019-05-13T03:39:09.654Z,169.14
2019-05-13T03:43:42.805Z,159.82
2019-05-13T03:48:42.692Z,150.25
2019-05-13T03:53:43.158Z,155.82
2019-05-13T03:58:43.230Z,186.92
2019-05-13T04:03:43.822Z,210.35
2019-05-13T04:08:43.316Z,225.41
2019-05-13T04:13:42.744Z,225.1
2019-05-13T04:18:42.497Z,206.15
2019-05-13T04:23:42.411Z,191.13
2019-05-13T04:28:43.242Z,192.02
2019-05-13T04:33:44.940Z,185.76
2019-05-13T04:38:43.505Z,168.63
2019-05-13T04:43:43.389Z,186.18
2019-05-13T04:48:45.184Z,183.54
2019-05-13T04:53:42.308Z,208.23
2019-05-13T04:58:42.754Z,225.1
2019-05-13T05:03:47.630Z,244.59
2019-05-13T05:08:42.043Z,265.83
2019-05-13T05:13:42.802Z,270.18
2019-05-13T05:18:42.054Z,271.95
2019-05-13T05:23:42.247Z,261
2019-05-13T05:28:41.374Z,283.38
2019-05-13T05:33:41.157Z,309.66
2019-05-13T05:38:42.643Z,299.83
2019-05-13T05:43:44.691Z,310.24
2019-05-13T05:48:41.972Z,282.17
2019-05-13T05:53:42.283Z,284.11
2019-05-13T05:58:41.904Z,336.44
2019-05-13T06:03:41.782Z,316.78
2019-05-13T06:08:41.334Z,375.42
2019-05-13T06:13:42.014Z,351.84
2019-05-13T06:18:41.467Z,304.24
2019-05-13T06:23:41.767Z,357.94
2019-05-13T06:28:41.323Z,450.59
2019-05-13T06:33:42.123Z,514.42
2019-05-13T06:38:42.376Z,700.55
2019-05-13T06:43:41.816Z,745.65
2019-05-13T06:48:41.412Z,750.98
2019-05-13T06:53:41.382Z,903.9
2019-05-13T06:58:44.815Z,883.13
2019-05-13T07:03:41.911Z,855.6
2019-05-13T07:08:41.653Z,986.07
2019-05-13T07:13:42.232Z,1153.52
2019-05-13T07:18:41.495Z,1231.69
2019-05-13T07:23:42.223Z,988.24
2019-05-13T07:28:42.759Z,929.51
2019-05-13T07:33:42.529Z,938.59
2019-05-13T07:38:41.503Z,846.44
2019-05-13T07:43:42.560Z,832.3
2019-05-13T07:48:41.542Z,934.03
2019-05-13T07:53:42.526Z,878.51
2019-05-13T07:58:41.816Z,1055.73
2019-05-13T08:03:42.078Z,1081.19
2019-05-13T08:08:41.635Z,1009.76
2019-05-13T08:13:41.548Z,1149.57
2019-05-13T08:18:41.840Z,806.84
2019-05-13T08:23:43.805Z,1095.28
2019-05-13T08:29:01.908Z,889.55
2019-05-13T08:33:42.386Z,1211.71
2019-05-13T08:38:42.897Z,1210.62
2019-05-13T08:43:41.887Z,945.19
2019-05-13T08:48:42.850Z,1226.07
2019-05-13T08:53:42.424Z,1136.94
2019-05-13T08:58:41.211Z,1235.08
2019-05-13T09:03:41.617Z,1503.63
2019-05-13T09:08:47.245Z,1414.3
2019-05-13T09:13:47.218Z,1466.74
2019-05-13T09:18:47.256Z,1963.5
2019-05-13T09:23:47.253Z,1067.46
2019-05-13T09:28:47.211Z,1666.67
2019-05-13T09:33:47.262Z,2160.64
2019-05-13T09:38:47.238Z,3000.56
2019-05-13T09:43:47.227Z,1901.06
2019-05-13T09:48:47.233Z,1815.11
2019-05-13T09:53:47.242Z,2521.09
2019-05-13T09:58:47.231Z,2078.82
2019-05-13T10:03:59.086Z,1265.29
2019-05-13T10:08:47.289Z,1208.45
2019-05-13T10:13:47.242Z,2021.04
2019-05-13T10:18:47.182Z,2109.8
2019-05-13T10:23:47.216Z,2557.03
2019-05-13T10:28:47.159Z,2109.8
2019-05-13T10:33:47.192Z,1885.07
2019-05-13T10:38:47.243Z,2174.62
2019-05-13T10:43:47.213Z,2264.31
2019-05-13T10:48:47.155Z,1610.78
2019-05-13T10:53:47.183Z,1595.49
2019-05-13T10:58:47.162Z,1458.79
2019-05-13T11:03:47.163Z,994.82
2019-05-13T11:08:47.159Z,1441.59
2019-05-13T11:14:06.762Z,1458.79
2019-05-13T11:18:47.157Z,2172.86
2019-05-13T11:23:47.176Z,1723.25
2019-05-13T11:28:47.278Z,1515.49
2019-05-13T11:33:47.140Z,2247.28
2019-05-13T11:38:47.150Z,1318.63
2019-05-13T11:44:07.056Z,1682.3
2019-05-13T11:48:47.137Z,1659.47
2019-05-13T11:53:47.146Z,1411.33
2019-05-13T11:58:47.154Z,2380.53
2019-05-13T12:03:47.110Z,2349.34
2019-05-13T12:08:55.355Z,1713.38
2019-05-13T12:13:52.493Z,1240.78
2019-05-13T12:18:48.091Z,1433.9
2019-05-13T12:23:48.204Z,2088.51
2019-05-13T12:28:48.088Z,2395.37
2019-05-13T12:33:48.084Z,1159.48
2019-05-13T12:38:48.089Z,1680.2
2019-05-13T12:43:48.096Z,1063.24
2019-05-13T12:48:48.074Z,970.42
2019-05-13T12:53:48.082Z,544.43
2019-05-13T12:58:48.069Z,1357.21
2019-05-13T13:03:48.072Z,869.42
2019-05-13T13:08:51.943Z,647.23
2019-05-13T13:14:05.574Z,806.35
2019-05-13T13:18:51.486Z,852.34
2019-05-13T13:23:48.123Z,1095.28
2019-05-13T13:28:48.065Z,916.21
2019-05-13T13:33:48.620Z,911.25
2019-05-13T13:38:48.142Z,1163.49
2019-05-13T13:43:48.080Z,1187.11
2019-05-13T13:48:48.044Z,1119.9
2019-05-13T13:53:48.037Z,500.24
2019-05-13T13:58:48.143Z,1208.45
2019-05-13T14:03:48.528Z,628.46
2019-05-13T14:08:51.881Z,882.55
2019-05-13T14:13:48.067Z,749.3
2019-05-13T14:18:48.034Z,800.12
2019-05-13T14:23:54.210Z,781.07
2019-05-13T14:28:55.526Z,376.7
2019-05-13T14:33:54.362Z,853.43
2019-05-13T14:38:54.977Z,707.19
2019-05-13T14:43:53.904Z,589.32
2019-05-13T14:48:51.834Z,702.02
2019-05-13T14:53:54.167Z,645.99
2019-05-13T14:58:54.231Z,1246.53
2019-05-13T15:03:54.181Z,953.22
2019-05-13T15:08:54.615Z,1151.54
2019-05-13T15:13:54.286Z,743.17
2019-05-13T15:18:54.489Z,623.8
2019-05-13T15:23:53.918Z,934.68
2019-05-13T15:28:54.229Z,997.77
2019-05-13T15:33:54.406Z,1113.41
2019-05-13T15:38:53.938Z,1150.56
2019-05-13T15:43:54.067Z,536.18
2019-05-13T15:49:03.892Z,917.46
2019-05-13T15:53:56.972Z,670.49
2019-05-13T15:58:54.970Z,623.22
2019-05-13T16:03:54.368Z,881.39
2019-05-13T16:08:54.066Z,1029.86
2019-05-13T16:13:54.000Z,934.03
2019-05-13T16:18:53.551Z,1021.26
2019-05-13T16:23:55.598Z,498.76
2019-05-13T16:28:55.390Z,497.65
2019-05-13T16:33:55.492Z,505.51
2019-05-13T16:38:55.385Z,473.45
2019-05-13T16:43:55.369Z,341.66
2019-05-13T16:48:55.458Z,308.5
2019-05-13T16:53:55.369Z,455.79
2019-05-13T16:58:55.400Z,530.67
2019-05-13T17:03:55.380Z,481.25
2019-05-13T17:08:55.373Z,400.14
2019-05-13T17:13:55.350Z,387.89
2019-05-13T17:18:55.344Z,398.95
2019-05-13T17:23:55.352Z,397.3
2019-05-13T17:28:55.330Z,414.96
2019-05-13T17:33:55.341Z,420.95
2019-05-13T17:38:55.380Z,441.7
2019-05-13T17:43:55.370Z,491.1
2019-05-13T17:48:55.384Z,533.2
2019-05-13T17:53:55.347Z,511.67
2019-05-13T17:58:55.320Z,470.8
2019-05-13T18:03:55.358Z,505.13
2019-05-13T18:08:55.313Z,575.69
2019-05-13T18:13:55.336Z,539.19
2019-05-13T18:18:55.318Z,539.19
2019-05-13T18:23:55.291Z,453.63
2019-05-13T18:28:56.050Z,445.8
2019-05-13T18:33:56.005Z,413.18
2019-05-13T18:39:01.588Z,368.31
2019-05-13T18:43:57.148Z,330.72
2019-05-13T18:49:02.149Z,191.58
2019-05-13T18:53:57.112Z,145.56
2019-05-13T18:58:57.148Z,145.06
2019-05-13T19:03:57.072Z,150.25
2019-05-13T19:08:57.080Z,194.51
2019-05-13T19:13:57.078Z,227.43
2019-05-13T19:18:57.139Z,245.13
2019-05-13T19:23:57.123Z,272.63
2019-05-13T19:28:57.068Z,280.25
2019-05-13T19:33:57.078Z,409.15
2019-05-13T19:38:57.044Z,414.45
2019-05-13T19:44:03.699Z,509.73
2019-05-13T19:49:03.654Z,427.92
2019-05-13T19:54:03.326Z,207.71
2019-05-13T19:59:03.646Z,226.8
2019-05-13T20:04:04.382Z,234.52
2019-05-13T20:09:03.642Z,236.2
2019-05-13T20:14:03.512Z,241.9
2019-05-13T20:19:03.361Z,313.47
2019-05-13T20:24:01.814Z,277.9
2019-05-13T20:29:03.715Z,327.77
2019-05-13T20:34:03.826Z,440.83
2019-05-13T20:39:04.195Z,484.73
2019-05-13T20:44:03.605Z,379.78
2019-05-13T20:49:04.608Z,403.26
2019-05-13T20:54:04.618Z,286.08
2019-05-13T20:59:04.642Z,237.22
2019-05-13T21:04:04.604Z,236.54
2019-05-13T21:09:04.643Z,282.89
2019-05-13T21:14:04.626Z,254.57
2019-05-13T21:19:04.637Z,191.02
2019-05-13T21:24:04.587Z,166.13
2019-05-13T21:29:04.614Z,136.91
2019-05-13T21:34:04.594Z,132.38
2019-05-13T21:39:04.620Z,186.92
2019-05-13T21:44:04.579Z,202.61
2019-05-13T21:49:04.584Z,147.48
2019-05-13T21:54:08.695Z,126.79
2019-05-13T21:59:08.695Z,131.97
2019-05-13T22:04:08.667Z,147.48
2019-05-13T22:09:08.700Z,160.43
2019-05-13T22:14:11.121Z,174.4
2019-05-13T22:19:08.663Z,180.39
2019-05-13T22:24:08.744Z,186.71
2019-05-13T22:29:08.670Z,141.16
2019-05-13T22:34:08.655Z,183.14
2019-05-13T22:39:08.657Z,285.83
2019-05-13T22:44:11.375Z,303.12
2019-05-13T22:49:08.652Z,316.78
2019-05-13T22:54:08.624Z,406.92
2019-05-13T22:59:08.645Z,296.6
2019-05-13T23:04:08.623Z,177.16
2019-05-13T23:09:08.648Z,273.98
2019-05-13T23:14:13.588Z,229.8
2019-05-13T23:19:10.980Z,189.49
2019-05-13T23:24:08.588Z,204.11
2019-05-13T23:29:08.604Z,144.07
2019-05-13T23:34:08.588Z,133.96
2019-05-13T23:39:08.595Z,133.86
2019-05-13T23:44:27.958Z,156.54
2019-05-13T23:49:11.775Z,226.96
2019-05-13T23:54:08.587Z,278.6
2019-05-13T23:59:08.585Z,358.71
